createdAt,value
2018-04-06T00:00:23.464Z,93.32
2018-04-06T00:02:16.462Z,93.89
2018-04-06T00:03:16.497Z,93.89
2018-04-06T00:05:09.493Z,93.61
2018-04-06T00:06:09.527Z,93.84
2018-04-06T00:08:02.506Z,93.42
2018-04-06T00:09:02.559Z,93.32
2018-04-06T00:10:55.554Z,93.89
2018-04-06T00:11:55.586Z,93.51
2018-04-06T00:13:48.570Z,93.42
2018-04-06T00:14:48.624Z,93.80
2018-04-06T00:16:41.621Z,93.42
2018-04-06T00:17:41.680Z,94.08
2018-04-06T00:19:34.630Z,93.89
2018-04-06T00:20:34.688Z,93.89
2018-04-06T00:22:27.684Z,93.99
2018-04-06T00:23:27.717Z,94.08
2018-04-06T00:25:20.724Z,94.08
2018-04-06T00:26:20.751Z,93.89
2018-04-06T00:28:13.725Z,93.99
2018-04-06T00:29:13.782Z,94.08
2018-04-06T00:31:06.786Z,94.27
2018-04-06T00:32:06.815Z,94.18
2018-04-06T00:33:59.791Z,94.08
2018-04-06T00:34:59.846Z,94.08
2018-04-06T00:36:52.841Z,93.80
2018-04-06T00:37:52.876Z,94.08
2018-04-06T00:39:45.860Z,94.08
2018-04-06T00:40:45.914Z,94.27
2018-04-06T00:42:38.920Z,94.08
2018-04-06T00:43:38.955Z,93.99
2018-04-06T00:45:31.929Z,94.65
2018-04-06T00:46:31.984Z,94.27
2018-04-06T00:48:24.978Z,93.99
2018-04-06T00:49:25.018Z,94.08
2018-04-06T00:51:18.019Z,94.32
2018-04-06T00:52:18.051Z,94.32
2018-04-06T00:54:11.027Z,94.51
2018-04-06T00:55:11.082Z,94.42
2018-04-06T00:57:04.081Z,94.46
2018-04-06T00:58:04.118Z,94.04
2018-04-06T00:59:57.089Z,93.99
2018-04-06T01:00:57.149Z,93.89
2018-04-06T01:02:50.145Z,93.99
2018-04-06T01:03:50.181Z,93.99
2018-04-06T01:05:43.165Z,94.27
2018-04-06T01:06:43.220Z,94.27
2018-04-06T01:08:36.216Z,94.13
2018-04-06T01:09:36.251Z,94.23
2018-04-06T01:11:29.232Z,94.08
2018-04-06T01:12:29.286Z,94.65
2018-04-06T01:14:22.288Z,94.08
2018-04-06T01:15:22.321Z,93.99
2018-04-06T01:17:15.319Z,94.08
2018-04-06T01:18:15.354Z,94.46
2018-04-06T01:20:08.336Z,95.03
2018-04-06T01:21:08.390Z,94.56
2018-04-06T01:23:01.399Z,94.65
2018-04-06T01:24:01.421Z,94.56
2018-04-06T01:25:54.396Z,94.84
2018-04-06T01:26:54.451Z,94.84
2018-04-06T01:28:47.457Z,94.79
2018-04-06T01:29:47.487Z,95.21
2018-04-06T01:31:40.463Z,94.79
2018-04-06T01:32:40.517Z,94.42
2018-04-06T01:34:33.513Z,94.79
2018-04-06T01:35:33.549Z,94.98
2018-04-06T01:37:26.544Z,94.70
2018-04-06T01:38:26.578Z,94.89
2018-04-06T01:40:19.560Z,94.84
2018-04-06T01:41:19.618Z,94.65
2018-04-06T01:43:12.614Z,94.65
2018-04-06T01:44:12.646Z,94.65
2018-04-06T01:46:05.621Z,94.84
2018-04-06T01:47:05.677Z,94.84
2018-04-06T01:48:58.716Z,94.84
2018-04-06T01:49:58.714Z,95.21
2018-04-06T01:51:51.691Z,94.65
2018-04-06T01:52:51.745Z,95.40
2018-04-06T01:54:44.737Z,95.21
2018-04-06T01:55:44.771Z,95.50
2018-04-06T01:57:37.747Z,95.97
2018-04-06T01:58:37.803Z,96.16
2018-04-06T02:00:30.797Z,95.97
2018-04-06T02:01:30.836Z,95.59
2018-04-06T02:03:23.842Z,95.59
2018-04-06T02:04:23.871Z,95.69
2018-04-06T02:06:16.845Z,95.12
2018-04-06T02:07:16.902Z,95.12
2018-04-06T02:09:09.898Z,95.40
2018-04-06T02:10:09.931Z,95.21
2018-04-06T02:12:02.907Z,95.50
2018-04-06T02:13:02.963Z,95.50
2018-04-06T02:14:55.958Z,95.40
2018-04-06T02:15:55.992Z,95.69
2018-04-06T02:17:48.967Z,95.78
2018-04-06T02:18:49.021Z,95.88
2018-04-06T02:20:42.531Z,95.88
2018-04-06T02:21:42.560Z,95.78
2018-04-06T02:23:35.557Z,95.83
2018-04-06T02:24:35.664Z,96.35
2018-04-06T02:26:28.566Z,96.16
2018-04-06T02:27:28.623Z,95.97
2018-04-06T02:29:21.617Z,96.45
2018-04-06T02:30:21.651Z,96.35
2018-04-06T02:32:14.625Z,96.16
2018-04-06T02:33:14.680Z,96.83
2018-04-06T02:35:07.674Z,96.92
2018-04-06T02:36:07.709Z,96.02
2018-04-06T02:38:00.691Z,96.16
2018-04-06T02:39:00.746Z,96.35
2018-04-06T02:40:53.748Z,96.59
2018-04-06T02:41:53.781Z,96.97
2018-04-06T02:43:46.788Z,96.69
2018-04-06T02:44:46.812Z,96.69
2018-04-06T02:46:39.788Z,96.88
2018-04-06T02:47:39.844Z,96.50
2018-04-06T02:49:32.844Z,96.40
2018-04-06T02:50:32.878Z,96.50
2018-04-06T02:52:25.862Z,97.06
2018-04-06T02:53:25.915Z,96.83
2018-04-06T02:55:18.910Z,96.92
2018-04-06T02:56:18.947Z,96.88
2018-04-06T02:58:11.915Z,96.92
2018-04-06T02:59:11.972Z,96.64
2018-04-06T03:01:04.969Z,96.69
2018-04-06T03:02:05.009Z,96.88
2018-04-06T03:03:57.977Z,96.69
2018-04-06T03:04:58.031Z,96.78
2018-04-06T03:06:51.032Z,96.69
2018-04-06T03:07:51.066Z,97.06
2018-04-06T03:09:44.062Z,96.97
2018-04-06T03:10:44.095Z,96.78
2018-04-06T03:12:37.067Z,96.88
2018-04-06T03:13:37.123Z,96.97
2018-04-06T03:15:30.126Z,96.59
2018-04-06T03:16:30.160Z,97.25
2018-04-06T03:18:23.135Z,97.44
2018-04-06T03:19:23.190Z,97.06
2018-04-06T03:21:16.699Z,97.06
2018-04-06T03:22:16.731Z,96.88
2018-04-06T03:24:09.709Z,96.78
2018-04-06T03:25:09.763Z,96.78
2018-04-06T03:27:02.758Z,97.25
2018-04-06T03:28:02.792Z,97.16
2018-04-06T03:29:55.792Z,97.06
2018-04-06T03:30:55.833Z,96.59
2018-04-06T03:32:48.794Z,96.88
2018-04-06T03:33:48.848Z,96.97
2018-04-06T03:35:41.850Z,97.34
2018-04-06T03:36:41.884Z,97.16
2018-04-06T03:38:34.862Z,97.34
2018-04-06T03:39:34.912Z,97.44
2018-04-06T03:41:27.906Z,97.53
2018-04-06T03:42:27.941Z,96.88
2018-04-06T03:44:20.914Z,97.16
2018-04-06T03:45:20.966Z,98.01
2018-04-06T03:47:13.965Z,98.01
2018-04-06T03:48:14.000Z,98.10
2018-04-06T03:50:06.977Z,97.82
2018-04-06T03:51:07.025Z,98.20
2018-04-06T03:53:00.022Z,98.67
2018-04-06T03:54:00.054Z,98.67
2018-04-06T03:55:53.058Z,98.86
2018-04-06T03:56:53.090Z,98.29
2018-04-06T03:58:46.067Z,98.48
2018-04-06T03:59:46.121Z,98.39
2018-04-06T04:01:39.117Z,98.39
2018-04-06T04:02:39.151Z,98.39
2018-04-06T04:04:32.124Z,98.48
2018-04-06T04:05:32.181Z,98.86
2018-04-06T04:07:25.176Z,98.48
2018-04-06T04:08:25.208Z,98.77
2018-04-06T04:10:18.189Z,98.67
2018-04-06T04:11:18.244Z,98.86
2018-04-06T04:13:11.234Z,98.67
2018-04-06T04:14:11.266Z,98.48
2018-04-06T04:16:04.280Z,98.01
2018-04-06T04:17:04.300Z,98.01
2018-04-06T04:18:57.277Z,97.72
2018-04-06T04:19:57.328Z,98.48
2018-04-06T04:21:50.327Z,98.01
2018-04-06T04:22:50.367Z,98.10
2018-04-06T04:24:43.339Z,98.10
2018-04-06T04:25:43.390Z,97.91
2018-04-06T04:27:36.394Z,98.58
2018-04-06T04:28:36.433Z,98.29
2018-04-06T04:30:29.408Z,97.91
2018-04-06T04:31:29.459Z,98.10
2018-04-06T04:33:22.456Z,97.91
2018-04-06T04:34:22.498Z,98.10
2018-04-06T04:36:15.495Z,98.10
2018-04-06T04:37:15.516Z,97.91
2018-04-06T04:39:08.520Z,97.82
2018-04-06T04:40:08.572Z,97.91
2018-04-06T04:42:01.557Z,97.91
2018-04-06T04:43:01.592Z,98.20
2018-04-06T04:44:54.574Z,98.39
2018-04-06T04:45:54.626Z,98.48
2018-04-06T04:47:47.618Z,97.91
2018-04-06T04:48:47.653Z,97.67
2018-04-06T04:50:40.627Z,98.10
2018-04-06T04:51:40.681Z,98.67
2018-04-06T04:53:33.683Z,98.39
2018-04-06T04:54:33.709Z,98.48
2018-04-06T04:56:26.680Z,98.39
2018-04-06T04:57:26.735Z,98.86
2018-04-06T04:59:19.727Z,98.67
2018-04-06T05:00:19.761Z,98.86
2018-04-06T05:02:12.762Z,98.67
2018-04-06T05:03:12.785Z,98.86
2018-04-06T05:05:05.761Z,98.48
2018-04-06T05:06:05.822Z,98.29
2018-04-06T05:07:58.809Z,98.58
2018-04-06T05:08:58.842Z,98.77
2018-04-06T05:10:51.833Z,98.77
2018-04-06T05:11:51.889Z,98.29
2018-04-06T05:13:44.881Z,98.48
2018-04-06T05:14:44.914Z,97.91
2018-04-06T05:16:37.889Z,98.48
2018-04-06T05:17:37.961Z,98.48
2018-04-06T05:19:30.936Z,98.67
2018-04-06T05:20:30.969Z,98.67
2018-04-06T05:22:23.944Z,98.48
2018-04-06T05:23:23.997Z,98.29
2018-04-06T05:25:16.999Z,98.86
2018-04-06T05:26:17.028Z,98.67
2018-04-06T05:28:10.024Z,98.86
2018-04-06T05:29:10.059Z,98.48
2018-04-06T05:31:03.038Z,98.48
2018-04-06T05:32:03.090Z,98.29
2018-04-06T05:33:56.590Z,98.10
2018-04-06T05:34:56.625Z,98.48
2018-04-06T05:36:49.605Z,98.77
2018-04-06T05:37:49.653Z,98.86
2018-04-06T05:39:42.651Z,98.39
2018-04-06T05:40:42.691Z,98.20
2018-04-06T05:42:35.661Z,98.86
2018-04-06T05:43:35.715Z,98.48
2018-04-06T05:45:28.720Z,98.86
2018-04-06T05:46:28.750Z,98.39
2018-04-06T05:48:21.746Z,98.48
2018-04-06T05:49:21.781Z,98.29
2018-04-06T05:51:14.766Z,98.67
2018-04-06T05:52:14.822Z,98.67
2018-04-06T05:54:07.816Z,99.33
2018-04-06T05:55:07.851Z,99.24
2018-04-06T05:57:00.821Z,99.38
2018-04-06T05:58:00.884Z,99.29
2018-04-06T05:59:53.871Z,99.38
2018-04-06T06:00:53.904Z,99.29
2018-04-06T06:02:46.886Z,98.91
2018-04-06T06:03:46.935Z,98.63
2018-04-06T06:05:39.933Z,98.72
2018-04-06T06:06:39.981Z,98.15
2018-04-06T06:08:32.946Z,98.34
2018-04-06T06:09:32.992Z,98.15
2018-04-06T06:11:25.989Z,97.68
2018-04-06T06:12:26.024Z,98.15
2018-04-06T06:14:19.025Z,98.20
2018-04-06T06:15:19.060Z,97.35
2018-04-06T06:17:12.035Z,97.06
2018-04-06T06:18:12.089Z,96.78
2018-04-06T06:20:05.087Z,96.97
2018-04-06T06:21:05.119Z,96.21
2018-04-06T06:22:58.097Z,96.17
2018-04-06T06:23:58.153Z,95.98
2018-04-06T06:25:51.153Z,95.50
2018-04-06T06:26:51.188Z,95.41
2018-04-06T06:28:44.165Z,95.41
2018-04-06T06:29:44.220Z,95.12
2018-04-06T06:31:37.219Z,94.04
2018-04-06T06:32:37.254Z,94.60
2018-04-06T06:34:30.253Z,93.56
2018-04-06T06:35:30.285Z,92.76
2018-04-06T06:37:23.779Z,92.80
2018-04-06T06:38:23.827Z,91.66
2018-04-06T06:40:16.825Z,90.66
2018-04-06T06:41:16.860Z,89.86
2018-04-06T06:43:09.868Z,87.13
2018-04-06T06:44:09.893Z,83.56
2018-04-06T06:46:02.894Z,78.06
2018-04-06T06:47:02.932Z,73.62
2018-04-06T06:48:55.917Z,70.97
2018-04-06T06:49:55.968Z,72.41
2018-04-06T06:51:48.972Z,72.88
2018-04-06T06:52:49.980Z,72.63
2018-04-06T06:54:41.998Z,71.39
2018-04-06T06:55:42.051Z,70.97
2018-04-06T06:57:35.063Z,70.53
2018-04-06T06:58:35.103Z,69.87
2018-04-06T07:00:28.116Z,67.65
2018-04-06T07:01:28.150Z,65.77
2018-04-06T07:03:21.140Z,62.94
2018-04-06T07:04:21.204Z,62.37
2018-04-06T07:06:14.222Z,60.13
2018-04-06T07:07:14.264Z,58.28
2018-04-06T07:09:07.253Z,55.23
2018-04-06T07:10:07.314Z,57.50
2018-04-06T07:12:00.331Z,58.80
2018-04-06T07:13:00.371Z,60.81
2018-04-06T07:14:53.364Z,59.24
2018-04-06T07:15:53.426Z,58.22
2018-04-06T07:17:46.445Z,57.14
2018-04-06T07:18:46.486Z,58.03
2018-04-06T07:20:39.477Z,54.96
2018-04-06T07:21:39.541Z,53.20
2018-04-06T07:23:32.562Z,53.08
2018-04-06T07:24:32.598Z,54.26
2018-04-06T07:26:25.617Z,54.36
2018-04-06T07:27:25.657Z,53.30
2018-04-06T07:29:18.651Z,53.82
2018-04-06T07:30:18.717Z,54.85
2018-04-06T07:32:11.740Z,55.52
2018-04-06T07:33:11.795Z,55.90
2018-04-06T07:35:04.771Z,54.88
2018-04-06T07:36:04.836Z,54.59
2018-04-06T07:37:58.371Z,54.21
2018-04-06T07:38:58.407Z,54.68
2018-04-06T07:40:51.431Z,53.94
2018-04-06T07:41:51.502Z,53.11
2018-04-06T07:43:44.495Z,51.44
2018-04-06T07:44:44.539Z,50.12
2018-04-06T07:46:37.565Z,47.63
2018-04-06T07:47:37.599Z,48.13
2018-04-06T07:49:30.595Z,45.52
2018-04-06T07:50:30.662Z,45.37
2018-04-06T07:52:23.695Z,44.94
2018-04-06T07:53:23.728Z,43.46
2018-04-06T07:55:16.730Z,43.94
2018-04-06T07:56:16.794Z,45.00
2018-04-06T07:58:10.325Z,44.80
2018-04-06T07:59:10.368Z,44.59
2018-04-06T08:01:03.371Z,44.75
2018-04-06T08:02:03.439Z,43.57
2018-04-06T08:03:56.464Z,40.11
2018-04-06T08:04:56.513Z,40.18
2018-04-06T08:06:49.511Z,40.66
2018-04-06T08:07:49.586Z,40.64
2018-04-06T08:09:42.617Z,43.00
2018-04-06T08:10:42.657Z,42.40
2018-04-06T08:12:35.686Z,44.54
2018-04-06T08:13:35.734Z,45.93
2018-04-06T08:15:28.737Z,43.44
2018-04-06T08:16:28.806Z,44.73
2018-04-06T08:18:21.841Z,47.25
2018-04-06T08:19:21.887Z,46.34
2018-04-06T08:21:15.392Z,43.53
2018-04-06T08:22:15.462Z,44.47
2018-04-06T08:24:08.492Z,44.63
2018-04-06T08:25:08.534Z,43.02
2018-04-06T08:27:01.539Z,43.12
2018-04-06T08:28:01.611Z,43.12
2018-04-06T08:29:54.636Z,43.80
2018-04-06T08:30:54.685Z,44.59
2018-04-06T08:32:47.712Z,42.98
2018-04-06T08:33:47.762Z,42.88
2018-04-06T08:35:40.763Z,42.67
2018-04-06T08:36:40.832Z,42.60
2018-04-06T08:38:35.368Z,42.50
2018-04-06T08:39:35.414Z,42.46
2018-04-06T08:41:28.419Z,43.70
2018-04-06T08:42:28.531Z,42.86
2018-04-06T08:44:21.518Z,42.47
2018-04-06T08:45:21.567Z,42.71
2018-04-06T08:47:14.571Z,40.39
2018-04-06T08:48:14.641Z,40.99
2018-04-06T08:50:07.703Z,39.51
2018-04-06T08:51:07.713Z,38.43
2018-04-06T08:53:00.745Z,38.59
2018-04-06T08:54:00.788Z,39.43
2018-04-06T08:55:53.790Z,40.02
2018-04-06T08:56:53.860Z,40.22
2018-04-06T08:58:46.897Z,39.01
2018-04-06T08:59:46.942Z,39.04
2018-04-06T09:01:39.976Z,40.67
2018-04-06T09:02:40.024Z,41.33
2018-04-06T09:04:33.053Z,41.83
2018-04-06T09:05:33.103Z,42.23
2018-04-06T09:07:26.110Z,41.35
2018-04-06T09:08:26.181Z,40.48
2018-04-06T09:10:19.214Z,42.34
2018-04-06T09:11:19.254Z,44.62
2018-04-06T09:13:12.260Z,47.44
2018-04-06T09:14:12.325Z,47.87
2018-04-06T09:16:05.351Z,51.26
2018-04-06T09:17:05.402Z,51.81
2018-04-06T09:18:58.400Z,50.54
2018-04-06T09:19:58.466Z,51.12
2018-04-06T09:21:51.482Z,52.16
2018-04-06T09:22:51.529Z,52.73
2018-04-06T09:24:44.545Z,52.36
2018-04-06T09:25:44.586Z,51.50
2018-04-06T09:27:37.582Z,52.16
2018-04-06T09:28:37.645Z,52.36
2018-04-06T09:30:30.656Z,52.92
2018-04-06T09:31:30.698Z,53.02
2018-04-06T09:33:23.688Z,51.23
2018-04-06T09:34:23.750Z,50.85
2018-04-06T09:36:16.766Z,46.94
2018-04-06T09:37:16.806Z,47.11
2018-04-06T09:39:09.799Z,47.61
2018-04-06T09:40:09.866Z,47.52
2018-04-06T09:42:03.376Z,49.13
2018-04-06T09:43:02.922Z,48.63
2018-04-06T09:44:55.933Z,50.63
2018-04-06T09:45:56.935Z,50.83
2018-04-06T09:47:48.971Z,49.78
2018-04-06T09:48:49.031Z,49.71
2018-04-06T09:50:42.080Z,49.90
2018-04-06T09:51:42.101Z,50.95
2018-04-06T09:53:35.083Z,47.13
2018-04-06T09:54:35.145Z,46.37
2018-04-06T09:56:28.159Z,47.71
2018-04-06T09:57:28.196Z,47.80
2018-04-06T09:59:21.197Z,48.49
2018-04-06T10:00:21.253Z,47.99
2018-04-06T10:02:14.259Z,48.28
2018-04-06T10:03:14.300Z,48.28
2018-04-06T10:05:07.322Z,46.08
2018-04-06T10:06:07.349Z,46.18
2018-04-06T10:08:00.338Z,44.53
2018-04-06T10:09:00.402Z,45.20
2018-04-06T10:10:53.415Z,47.03
2018-04-06T10:11:53.448Z,46.58
2018-04-06T10:13:46.438Z,47.06
2018-04-06T10:14:46.496Z,47.73
2018-04-06T10:16:39.502Z,44.87
2018-04-06T10:17:39.545Z,46.20
2018-04-06T10:19:32.548Z,44.29
2018-04-06T10:20:32.602Z,44.58
2018-04-06T10:22:25.610Z,43.72
2018-04-06T10:23:25.651Z,46.68
2018-04-06T10:25:18.661Z,45.53
2018-04-06T10:26:18.702Z,45.92
2018-04-06T10:28:11.694Z,43.24
2018-04-06T10:29:11.805Z,44.58
2018-04-06T10:31:04.776Z,43.62
2018-04-06T10:32:04.805Z,43.62
2018-04-06T10:33:57.799Z,42.96
2018-04-06T10:34:57.881Z,43.05
2018-04-06T10:36:50.865Z,42.67
2018-04-06T10:37:50.905Z,42.29
2018-04-06T10:39:43.892Z,43.82
2018-04-06T10:40:43.954Z,45.27
2018-04-06T10:42:36.962Z,44.41
2018-04-06T10:43:37.023Z,43.84
2018-04-06T10:45:30.008Z,44.60
2018-04-06T10:46:30.046Z,43.91
2018-04-06T10:48:23.035Z,43.62
2018-04-06T10:49:23.091Z,43.15
2018-04-06T10:51:16.096Z,42.86
2018-04-06T10:52:16.135Z,43.33
2018-04-06T10:54:09.244Z,42.96
2018-04-06T10:55:09.200Z,42.86
2018-04-06T10:57:02.191Z,43.62
2018-04-06T10:58:02.235Z,44.29
2018-04-06T10:59:55.223Z,44.48
2018-04-06T11:00:55.284Z,44.67
2018-04-06T11:02:48.290Z,44.87
2018-04-06T11:03:48.333Z,44.38
2018-04-06T11:05:41.334Z,43.62
2018-04-06T11:06:41.374Z,43.91
2018-04-06T11:08:34.365Z,43.15
2018-04-06T11:09:34.426Z,44.48
2018-04-06T11:11:27.435Z,43.07
2018-04-06T11:12:27.474Z,43.17
2018-04-06T11:14:20.457Z,44.31
2018-04-06T11:15:20.518Z,44.89
2018-04-06T11:17:13.632Z,44.41
2018-04-06T11:18:13.563Z,44.70
2018-04-06T11:20:06.552Z,45.08
2018-04-06T11:21:06.610Z,44.51
2018-04-06T11:22:59.645Z,45.17
2018-04-06T11:23:59.658Z,44.89
2018-04-06T11:25:52.849Z,44.41
2018-04-06T11:26:52.700Z,44.51
2018-04-06T11:28:47.225Z,44.89
2018-04-06T11:29:46.009Z,45.65
2018-04-06T11:31:44.878Z,46.13
2018-04-06T11:32:40.019Z,44.89
2018-04-06T11:34:33.006Z,46.32
2018-04-06T11:35:33.063Z,45.75
2018-04-06T11:37:26.121Z,46.44
2018-04-06T11:38:26.116Z,46.06
2018-04-06T11:40:19.092Z,45.29
2018-04-06T11:41:19.151Z,45.87
2018-04-06T11:43:13.812Z,45.48
2018-04-06T11:44:12.232Z,45.65
2018-04-06T11:46:05.203Z,47.20
2018-04-06T11:47:05.244Z,46.82
2018-04-06T11:49:00.101Z,47.11
2018-04-06T11:49:58.287Z,46.25
2018-04-06T11:51:51.293Z,44.43
2018-04-06T11:52:51.332Z,45.58
2018-04-06T11:54:44.328Z,46.63
2018-04-06T11:55:44.400Z,46.34
2018-04-06T11:57:37.924Z,47.49
2018-04-06T11:58:37.937Z,48.38
2018-04-06T12:00:30.921Z,48.38
2018-04-06T12:01:30.981Z,47.71
2018-04-06T12:03:24.506Z,49.30
2018-04-06T12:04:24.534Z,48.44
2018-04-06T12:06:17.542Z,50.67
2018-04-06T12:07:17.584Z,49.62
2018-04-06T12:09:10.576Z,49.52
2018-04-06T12:10:10.628Z,48.66
2018-04-06T12:12:03.638Z,48.75
2018-04-06T12:13:03.709Z,48.66
2018-04-06T12:14:56.667Z,48.28
2018-04-06T12:15:56.726Z,47.71
2018-04-06T12:17:49.782Z,47.61
2018-04-06T12:18:49.773Z,47.61
2018-04-06T12:20:42.760Z,47.89
2018-04-06T12:21:42.822Z,47.32
2018-04-06T12:23:35.830Z,46.46
2018-04-06T12:24:35.879Z,46.37
2018-04-06T12:26:28.883Z,46.37
2018-04-06T12:27:28.949Z,46.27
2018-04-06T12:29:21.907Z,44.45
2018-04-06T12:30:21.966Z,44.55
2018-04-06T12:32:14.971Z,44.65
2018-04-06T12:33:15.015Z,44.45
2018-04-06T12:35:08.004Z,46.27
2018-04-06T12:36:08.058Z,45.98
2018-04-06T12:38:01.067Z,47.61
2018-04-06T12:39:01.108Z,48.49
2018-04-06T12:40:54.093Z,44.65
2018-04-06T12:41:55.133Z,44.36
2018-04-06T12:43:47.160Z,47.34
2018-04-06T12:44:47.200Z,47.25
2018-04-06T12:46:40.270Z,45.15
2018-04-06T12:47:40.255Z,43.62
2018-04-06T12:49:33.250Z,44.29
2018-04-06T12:50:33.312Z,44.67
2018-04-06T12:52:26.326Z,42.66
2018-04-06T12:53:26.365Z,43.52
2018-04-06T12:55:19.353Z,43.43
2018-04-06T12:56:19.414Z,42.66
2018-04-06T12:58:12.932Z,42.08
2018-04-06T12:59:12.969Z,42.56
2018-04-06T13:01:05.959Z,42.66
2018-04-06T13:02:06.019Z,42.47
2018-04-06T13:03:59.031Z,42.37
2018-04-06T13:04:59.067Z,41.80
2018-04-06T13:06:52.073Z,41.32
2018-04-06T13:07:52.113Z,41.22
2018-04-06T13:09:45.103Z,41.82
2018-04-06T13:10:45.168Z,41.63
2018-04-06T13:12:38.172Z,40.48
2018-04-06T13:13:38.212Z,40.38
2018-04-06T13:15:31.203Z,41.46
2018-04-06T13:16:31.288Z,40.00
2018-04-06T13:18:24.268Z,40.00
2018-04-06T13:19:24.312Z,39.23
2018-04-06T13:21:17.296Z,40.02
2018-04-06T13:22:17.358Z,38.87
2018-04-06T13:24:10.374Z,35.98
2018-04-06T13:25:10.408Z,36.55
2018-04-06T13:27:03.420Z,37.63
2018-04-06T13:28:03.458Z,37.24
2018-04-06T13:29:56.446Z,37.05
2018-04-06T13:30:56.506Z,38.39
2018-04-06T13:32:49.523Z,38.01
2018-04-06T13:33:49.566Z,37.63
2018-04-06T13:35:42.553Z,36.77
2018-04-06T13:36:42.615Z,37.53
2018-04-06T13:38:35.626Z,37.24
2018-04-06T13:39:35.666Z,37.24
2018-04-06T13:41:28.656Z,35.52
2018-04-06T13:42:28.717Z,35.04
2018-04-06T13:44:21.727Z,35.61
2018-04-06T13:45:21.773Z,35.42
2018-04-06T13:47:14.772Z,35.42
2018-04-06T13:48:14.817Z,36.47
2018-04-06T13:50:07.802Z,37.63
2018-04-06T13:51:07.863Z,39.18
2018-04-06T13:53:00.876Z,38.32
2018-04-06T13:54:00.916Z,35.63
2018-04-06T13:55:53.903Z,33.80
2018-04-06T13:56:53.966Z,34.08
2018-04-06T13:58:46.980Z,34.08
2018-04-06T13:59:47.020Z,36.57
2018-04-06T14:01:40.011Z,35.24
2018-04-06T14:02:40.084Z,36.79
2018-04-06T14:04:33.081Z,37.26
2018-04-06T14:05:33.125Z,35.24
2018-04-06T14:07:26.132Z,36.29
2018-04-06T14:08:26.174Z,36.67
2018-04-06T14:10:19.164Z,37.07
2018-04-06T14:11:19.225Z,36.67
2018-04-06T14:13:12.238Z,38.12
2018-04-06T14:14:12.290Z,37.15
2018-04-06T14:16:05.278Z,37.07
2018-04-06T14:17:05.340Z,36.02
2018-04-06T14:18:58.359Z,34.10
2018-04-06T14:19:58.396Z,35.16
2018-04-06T14:21:51.389Z,34.87
2018-04-06T14:22:51.447Z,34.39
2018-04-06T14:24:44.516Z,36.21
2018-04-06T14:25:44.497Z,36.59
2018-04-06T14:27:37.510Z,35.04
2018-04-06T14:28:37.557Z,35.61
2018-04-06T14:30:30.543Z,34.47
2018-04-06T14:31:30.602Z,34.56
2018-04-06T14:33:24.122Z,35.14
2018-04-06T14:34:24.159Z,35.04
2018-04-06T14:36:17.144Z,36.59
2018-04-06T14:37:17.206Z,36.30
2018-04-06T14:39:10.222Z,36.40
2018-04-06T14:40:10.263Z,35.25
2018-04-06T14:42:03.254Z,34.96
2018-04-06T14:43:03.316Z,34.10
2018-04-06T14:44:56.320Z,32.95
2018-04-06T14:45:56.361Z,33.62
2018-04-06T14:47:49.373Z,35.25
2018-04-06T14:48:49.413Z,34.39
2018-04-06T14:50:42.402Z,34.67
2018-04-06T14:51:42.462Z,33.24
2018-04-06T14:53:35.472Z,31.99
2018-04-06T14:54:35.513Z,32.95
2018-04-06T14:56:28.503Z,32.18
2018-04-06T14:57:28.560Z,30.75
2018-04-06T14:59:21.567Z,31.04
2018-04-06T15:00:21.640Z,31.90
2018-04-06T15:02:14.604Z,32.47
2018-04-06T15:03:14.667Z,32.95
2018-04-06T15:05:07.676Z,30.75
2018-04-06T15:06:07.722Z,30.75
2018-04-06T15:08:00.726Z,30.46
2018-04-06T15:09:00.769Z,29.69
2018-04-06T15:10:53.757Z,29.79
2018-04-06T15:11:53.860Z,29.69
2018-04-06T15:13:46.824Z,29.79
2018-04-06T15:14:46.865Z,29.69
2018-04-06T15:16:39.866Z,30.84
2018-04-06T15:17:39.999Z,30.84
2018-04-06T15:19:33.443Z,29.69
2018-04-06T15:20:33.472Z,29.60
2018-04-06T15:22:26.461Z,29.88
2018-04-06T15:23:26.527Z,30.46
2018-04-06T15:25:19.530Z,31.71
2018-04-06T15:26:19.572Z,30.46
2018-04-06T15:28:12.582Z,31.43
2018-04-06T15:29:12.624Z,30.36
2018-04-06T15:31:05.609Z,31.04
2018-04-06T15:32:05.728Z,30.94
2018-04-06T15:33:59.192Z,30.94
2018-04-06T15:34:59.228Z,30.55
2018-04-06T15:36:52.218Z,29.98
2018-04-06T15:37:52.289Z,29.98
2018-04-06T15:39:45.290Z,31.13
2018-04-06T15:40:45.336Z,32.28
2018-04-06T15:42:38.326Z,32.18
2018-04-06T15:43:38.390Z,31.80
2018-04-06T15:45:31.412Z,30.86
2018-04-06T15:46:31.467Z,30.67
2018-04-06T15:48:24.974Z,29.80
2018-04-06T15:49:25.008Z,29.90
2018-04-06T15:51:17.997Z,29.82
2018-04-06T15:52:18.060Z,30.49
2018-04-06T15:54:11.068Z,29.53
2018-04-06T15:55:11.116Z,29.71
2018-04-06T15:57:04.106Z,28.37
2018-04-06T15:58:04.168Z,29.33
2018-04-06T15:59:57.167Z,29.71
2018-04-06T16:00:57.210Z,29.42
2018-04-06T16:02:50.211Z,28.64
2018-04-06T16:03:50.269Z,29.02
2018-04-06T16:05:43.279Z,29.41
2018-04-06T16:06:43.320Z,29.31
2018-04-06T16:08:36.330Z,29.98
2018-04-06T16:09:36.371Z,30.55
2018-04-06T16:11:29.362Z,30.65
2018-04-06T16:12:29.425Z,30.94
2018-04-06T16:14:22.431Z,29.79
2018-04-06T16:15:22.470Z,29.50
2018-04-06T16:17:15.461Z,30.46
2018-04-06T16:18:15.519Z,30.55
2018-04-06T16:20:08.534Z,31.99
2018-04-06T16:21:08.569Z,31.99
2018-04-06T16:23:01.560Z,31.04
2018-04-06T16:24:01.622Z,30.73
2018-04-06T16:25:54.630Z,31.71
2018-04-06T16:26:54.671Z,31.40
2018-04-06T16:28:47.687Z,31.88
2018-04-06T16:29:47.721Z,31.90
2018-04-06T16:31:40.711Z,31.40
2018-04-06T16:32:40.816Z,31.02
2018-04-06T16:34:33.795Z,31.02
2018-04-06T16:35:33.829Z,31.69
2018-04-06T16:37:26.824Z,30.93
2018-04-06T16:38:26.892Z,32.07
2018-04-06T16:40:19.896Z,33.03
2018-04-06T16:41:19.940Z,33.12
2018-04-06T16:43:12.931Z,31.98
2018-04-06T16:44:12.991Z,32.07
2018-04-06T16:46:05.998Z,32.46
2018-04-06T16:47:06.042Z,32.93
2018-04-06T16:48:59.048Z,33.51
2018-04-06T16:49:59.090Z,33.11
2018-04-06T16:51:52.095Z,34.45
2018-04-06T16:52:52.140Z,33.78
2018-04-06T16:54:45.392Z,33.20
2018-04-06T16:55:45.194Z,33.30
2018-04-06T16:57:38.250Z,34.06
2018-04-06T16:58:38.242Z,35.02
2018-04-06T17:00:31.261Z,34.55
2018-04-06T17:01:31.297Z,34.93
2018-04-06T17:03:24.285Z,36.36
2018-04-06T17:04:24.354Z,36.17
2018-04-06T17:06:17.369Z,36.08
2018-04-06T17:07:17.399Z,35.88
2018-04-06T17:09:10.406Z,36.17
2018-04-06T17:10:10.529Z,36.27
2018-04-06T17:12:03.437Z,36.82
2018-04-06T17:13:03.491Z,36.73
2018-04-06T17:14:56.499Z,36.54
2018-04-06T17:15:56.538Z,36.44
2018-04-06T17:17:49.530Z,36.92
2018-04-06T17:18:49.649Z,36.54
2018-04-06T17:20:42.600Z,36.63
2018-04-06T17:21:42.642Z,36.63
2018-04-06T17:23:35.635Z,35.86
2018-04-06T17:24:35.694Z,36.63
2018-04-06T17:26:28.716Z,36.73
2018-04-06T17:27:28.757Z,37.78
2018-04-06T17:29:21.775Z,37.11
2018-04-06T17:30:21.816Z,37.11
2018-04-06T17:32:14.819Z,37.68
2018-04-06T17:33:14.862Z,38.45
2018-04-06T17:35:08.390Z,38.24
2018-04-06T17:36:08.427Z,37.85
2018-04-06T17:38:01.419Z,37.85
2018-04-06T17:39:01.483Z,38.24
2018-04-06T17:40:54.494Z,38.91
2018-04-06T17:41:54.529Z,39.29
2018-04-06T17:43:47.520Z,39.77
2018-04-06T17:44:47.587Z,39.20
2018-04-06T17:46:40.591Z,39.77
2018-04-06T17:47:40.630Z,39.29
2018-04-06T17:49:33.640Z,39.48
2018-04-06T17:50:33.702Z,39.86
2018-04-06T17:52:26.676Z,39.48
2018-04-06T17:53:26.739Z,40.06
2018-04-06T17:55:19.750Z,39.86
2018-04-06T17:56:19.790Z,40.52
2018-04-06T17:58:12.774Z,40.42
2018-04-06T17:59:12.834Z,40.70
2018-04-06T18:01:05.843Z,40.61
2018-04-06T18:02:05.891Z,40.32
2018-04-06T18:03:58.868Z,41.09
2018-04-06T18:04:58.931Z,41.18
2018-04-06T18:06:51.937Z,40.32
2018-04-06T18:07:51.978Z,40.99
2018-04-06T18:09:44.984Z,40.52
2018-04-06T18:10:45.026Z,40.42
2018-04-06T18:12:38.013Z,41.38
2018-04-06T18:13:38.074Z,41.18
2018-04-06T18:15:31.079Z,41.28
2018-04-06T18:16:31.123Z,41.18
2018-04-06T18:18:24.110Z,41.93
2018-04-06T18:19:24.170Z,42.04
2018-04-06T18:21:17.178Z,42.50
2018-04-06T18:22:17.217Z,42.31
2018-04-06T18:24:10.208Z,42.50
2018-04-06T18:25:10.267Z,42.60
2018-04-06T18:27:03.270Z,42.50
2018-04-06T18:28:03.313Z,43.26
2018-04-06T18:29:56.315Z,43.17
2018-04-06T18:30:56.356Z,43.43
2018-04-06T18:32:49.343Z,44.48
2018-04-06T18:33:49.403Z,43.72